Time;durP1;ratioP1;P1;durP2;ratioP2;P2;SDS_P1;SDS_P2;PMS_P1;PMS_P2;Temp;Humidity;BMP_temperature;BMP_pressure;BME280_temperature;BME280_humidity;BME280_pressure;Samples;Min_cycle;Max_cycle;Signal;HPM_P1;HPM_P2
2021/09/05 00:01:06;;;;;;;9.20;5.23;;;;;;;7.80;70.62;100007.47;1670639;83;21133;-51
2021/09/05 00:03:33;;;;;;;7.37;3.40;;;;;;;7.75;70.56;100007.59;1707949;82;21168;-52
2021/09/05 00:05:59;;;;;;;10.23;4.57;;;;;;;7.71;70.58;100015.80;1703564;82;21065;-52
2021/09/05 00:08:26;;;;;;;6.23;3.00;;;;;;;7.68;70.63;100011.41;1705962;82;21085;-51
2021/09/05 00:10:52;;;;;;;4.90;2.83;;;;;;;7.65;70.82;100011.98;1703770;82;21066;-51
2021/09/05 00:13:18;;;;;;;5.00;2.57;;;;;;;7.64;70.83;100016.93;1704186;82;21152;-51
2021/09/05 00:15:46;;;;;;;6.33;3.10;;;;;;;7.62;70.83;100018.31;1706478;82;21137;-51
2021/09/05 00:18:14;;;;;;;6.00;3.70;;;;;;;7.60;70.97;100021.03;1708234;82;21107;-51
2021/09/05 00:20:41;;;;;;;6.70;3.13;;;;;;;7.59;70.94;100023.76;1707189;82;21123;-51
2021/09/05 00:23:09;;;;;;;6.23;3.40;;;;;;;7.57;70.85;100025.63;1669307;83;21073;-52
2021/09/05 00:25:35;;;;;;;6.67;3.27;;;;;;;7.52;70.87;100024.42;1674040;82;21599;-52
2021/09/05 00:28:02;;;;;;;9.70;4.00;;;;;;;7.49;70.87;100025.84;1673760;83;20966;-52
2021/09/05 00:30:29;;;;;;;9.53;3.90;;;;;;;7.46;70.90;100026.42;1709984;82;20931;-52
2021/09/05 00:32:55;;;;;;;13.17;3.67;;;;;;;7.41;70.92;100037.26;1700592;82;21078;-52
2021/09/05 00:35:21;;;;;;;3.87;2.50;;;;;;;7.38;71.06;100036.04;1701586;82;21096;-51
2021/09/05 00:37:48;;;;;;;9.73;3.80;;;;;;;7.36;71.07;100038.34;1703582;82;21074;-52
2021/09/05 00:40:14;;;;;;;6.07;2.47;;;;;;;7.34;70.96;100034.36;1708177;82;21027;-51
2021/09/05 00:42:41;;;;;;;13.70;2.60;;;;;;;7.34;70.94;100037.50;1709136;82;20986;-51
2021/09/05 00:45:08;;;;;;;4.57;2.77;;;;;;;7.33;70.95;100041.09;1706833;82;21393;-52
2021/09/05 00:47:35;;;;;;;7.60;2.57;;;;;;;7.33;71.00;100034.40;1707437;82;20907;-52
2021/09/05 00:50:02;;;;;;;4.90;2.80;;;;;;;7.34;71.15;100040.17;1711349;81;21370;-51
2021/09/05 00:52:28;;;;;;;4.27;2.90;;;;;;;7.33;70.93;100041.98;1710587;82;20888;-51
2021/09/05 00:54:55;;;;;;;7.03;3.60;;;;;;;7.30;70.81;100047.45;1677198;83;20911;-51
2021/09/05 00:57:23;;;;;;;5.43;2.90;;;;;;;7.26;70.81;100047.56;1714727;82;21365;-51
2021/09/05 00:59:50;;;;;;;6.87;3.17;;;;;;;7.21;70.87;100048.59;1702219;82;20911;-51
2021/09/05 01:02:17;;;;;;;9.27;4.67;;;;;;;7.17;70.85;100054.07;1705898;82;21050;-51
2021/09/05 01:04:46;;;;;;;6.80;3.40;;;;;;;7.13;70.87;100051.09;1704996;82;21164;-51
2021/09/05 01:07:13;;;;;;;4.20;2.47;;;;;;;7.08;71.05;100055.22;1701304;82;21116;-51
2021/09/05 01:09:39;;;;;;;7.27;2.27;;;;;;;7.04;70.95;100054.91;1710341;82;22652;-51
2021/09/05 01:12:08;;;;;;;3.70;2.17;;;;;;;7.01;70.99;100052.77;1701793;82;21043;-52
2021/09/05 01:14:36;;;;;;;3.27;1.73;;;;;;;6.99;71.11;100052.81;1704584;81;21078;-52
2021/09/05 01:17:05;;;;;;;3.40;2.87;;;;;;;6.99;71.15;100055.94;1672497;83;21064;-52
2021/09/05 01:19:32;;;;;;;5.13;2.17;;;;;;;6.98;71.13;100060.87;1704820;81;21057;-51
2021/09/05 01:22:15;;;;;;;3.50;2.30;;;;;;;6.98;71.09;100056.41;1713391;81;23323;-52
2021/09/05 01:24:46;;;;;;;5.47;3.07;;;;;;;6.97;70.95;100064.05;1670923;81;21109;-51
2021/09/05 01:27:17;;;;;;;6.07;3.37;;;;;;;6.94;70.95;100061.45;1717825;81;21072;-50
2021/09/05 01:29:48;;;;;;;9.37;3.03;;;;;;;6.90;70.95;100062.44;1693084;81;21111;-51
2021/09/05 01:32:28;;;;;;;5.07;2.67;;;;;;;6.88;70.93;100059.41;1680952;83;21567;-51
2021/09/05 01:35:14;;;;;;;5.23;2.37;;;;;;;6.86;71.01;100069.27;1687248;83;21170;-51
2021/09/05 01:37:45;;;;;;;3.40;2.10;;;;;;;6.81;71.00;100068.05;1657079;83;21116;-51
2021/09/05 01:40:16;;;;;;;4.17;2.00;;;;;;;6.79;71.02;100065.89;1665785;83;21093;-51
2021/09/05 01:42:47;;;;;;;4.27;1.63;;;;;;;6.79;70.86;100073.92;1661383;83;21141;-51
2021/09/05 01:45:34;;;;;;;6.47;2.13;;;;;;;6.74;70.92;100067.34;1665458;83;21145;-52
2021/09/05 01:48:06;;;;;;;5.67;1.73;;;;;;;6.73;71.05;100080.30;1667097;83;21235;-52
2021/09/05 01:50:44;;;;;;;2.63;1.70;;;;;;;6.73;70.99;100079.42;1668695;83;21030;-52
2021/09/05 01:53:15;;;;;;;3.43;1.60;;;;;;;6.72;71.11;100079.88;1620368;83;21110;-51
2021/09/05 01:56:00;;;;;;;4.83;1.45;;;;;;;6.73;71.18;100085.65;1681576;83;21763;-52
2021/09/05 01:58:40;;;;;;;6.37;2.37;;;;;;;6.73;70.98;100081.64;1630972;84;21359;-51
2021/09/05 02:01:11;;;;;;;2.93;2.13;;;;;;;6.71;70.95;100083.50;1678213;83;21199;-52
2021/09/05 02:03:47;;;;;;;7.83;1.72;;;;;;;6.70;70.88;100090.23;1679667;83;21330;-52
2021/09/05 02:06:21;;;;;;;3.97;2.37;;;;;;;6.65;70.84;100084.98;1679691;83;21048;-52
2021/09/05 02:08:56;;;;;;;4.37;2.10;;;;;;;6.60;70.80;100087.38;1681596;83;21021;-52
2021/09/05 02:11:41;;;;;;;;;;;;;;;6.57;70.83;100095.47;1685039;83;21204;-52
2021/09/05 02:14:12;;;;;;;2.70;1.20;;;;;;;6.53;70.94;100101.37;1682131;83;21100;-52
2021/09/05 02:16:41;;;;;;;3.93;1.30;;;;;;;6.50;70.87;100097.44;1685872;83;21002;-52
2021/09/05 02:19:13;;;;;;;2.03;1.10;;;;;;;6.47;70.86;100096.16;1683506;83;21503;-51
2021/09/05 02:21:44;;;;;;;3.07;1.57;;;;;;;6.45;70.97;100100.70;1676085;83;21625;-51
2021/09/05 02:24:14;;;;;;;5.27;2.10;;;;;;;6.45;71.07;100102.04;1676433;83;21124;-52
2021/09/05 02:26:42;;;;;;;3.47;1.83;;;;;;;6.45;71.08;100106.05;1660882;84;23283;-52
2021/09/05 02:29:23;;;;;;;2.27;1.43;;;;;;;6.43;71.13;100108.75;1712884;81;21431;-51
2021/09/05 02:31:53;;;;;;;4.70;1.97;;;;;;;6.41;71.07;100104.36;1711966;81;21127;-51
2021/09/05 02:34:36;;;;;;;2.27;1.35;;;;;;;6.38;71.02;100106.64;1672600;83;21050;-52
2021/09/05 02:37:12;;;;;;;2.83;1.50;;;;;;;6.36;71.04;100106.28;1716720;81;21049;-52
2021/09/05 02:39:40;;;;;;;6.20;2.03;;;;;;;6.32;71.09;100106.80;1708475;81;21560;-52
2021/09/05 02:42:25;;;;;;;;;;;;;;;6.30;71.07;100107.30;1715588;81;21681;-51
2021/09/05 02:44:54;;;;;;;7.90;2.20;;;;;;;6.26;71.04;100109.64;1711282;81;20428;-52
2021/09/05 02:47:29;;;;;;;5.70;2.75;;;;;;;6.21;71.07;100118.70;1712455;81;21120;-52
2021/09/05 02:49:57;;;;;;;6.90;1.40;;;;;;;6.15;71.14;100119.71;1715655;81;21108;-52
2021/09/05 02:52:27;;;;;;;3.87;1.30;;;;;;;6.12;71.21;100114.92;1711381;81;21116;-51
2021/09/05 02:54:58;;;;;;;4.63;1.40;;;;;;;6.12;71.27;100123.81;1707347;81;21034;-51
2021/09/05 02:57:30;;;;;;;2.77;0.97;;;;;;;6.14;71.31;100120.62;1706937;81;21386;-51
2021/09/05 03:00:16;;;;;;;1.45;0.90;;;;;;;6.17;71.37;100125.03;1682757;83;20969;-51
2021/09/05 03:02:46;;;;;;;3.90;1.20;;;;;;;6.19;71.40;100124.54;1660927;84;21456;-51
2021/09/05 03:05:30;;;;;;;;;;;;;;;6.22;71.29;100132.46;1683564;83;21444;-52
2021/09/05 03:08:15;;;;;;;2.87;1.20;;;;;;;6.21;71.24;100131.58;1676072;83;20573;-52
2021/09/05 03:10:48;;;;;;;5.55;1.60;;;;;;;6.18;71.20;100130.80;1712854;81;21087;-51
2021/09/05 03:13:25;;;;;;;3.93;1.30;;;;;;;6.17;71.12;100135.72;1708291;81;21104;-51
2021/09/05 03:16:02;;;;;;;2.17;1.20;;;;;;;6.15;71.04;100137.54;1713192;81;21060;-51
2021/09/05 03:18:44;;;;;;;2.53;1.10;;;;;;;6.12;71.02;100138.97;1671885;83;21693;-51
2021/09/05 03:21:20;;;;;;;2.90;1.10;;;;;;;6.07;70.96;100135.94;1665152;83;21053;-51
2021/09/05 03:23:52;;;;;;;2.33;1.20;;;;;;;6.02;71.06;100139.64;1681560;83;21123;-51
2021/09/05 03:26:23;;;;;;;1.37;0.93;;;;;;;5.97;71.15;100142.41;1680129;83;21132;-51
2021/09/05 03:29:08;;;;;;;1.80;0.90;;;;;;;5.97;71.20;100142.86;1662726;84;21087;-50
2021/09/05 03:31:39;;;;;;;3.73;1.00;;;;;;;5.94;71.30;100146.50;1649161;84;21558;-51
2021/09/05 03:34:10;;;;;;;3.50;0.90;;;;;;;5.95;71.43;100156.73;1674359;83;21120;-51
2021/09/05 03:36:50;;;;;;;2.33;1.00;;;;;;;5.95;71.52;100153.61;1664441;83;21169;-51
2021/09/05 03:39:18;;;;;;;1.47;1.00;;;;;;;5.98;71.64;100153.52;1685694;83;21524;-51
2021/09/05 03:41:50;;;;;;;1.97;1.07;;;;;;;6.01;71.64;100156.59;1678438;83;21053;-50
2021/09/05 03:44:24;;;;;;;;;;;;;;;6.03;71.69;100165.00;1645137;83;22432;-51
2021/09/05 03:47:05;;;;;;;7.70;1.40;;;;;;;6.05;71.76;100162.27;1665897;83;21648;-51
2021/09/05 03:49:46;;;;;;;1.60;1.30;;;;;;;6.01;71.89;100169.49;1666233;83;21089;-50
2021/09/05 03:52:13;;;;;;;5.30;1.33;;;;;;;6.00;72.08;100172.20;1673593;83;21067;-50
2021/09/05 03:54:40;;;;;;;4.40;1.07;;;;;;;5.98;72.23;100176.23;1648831;83;20966;-51
2021/09/05 03:57:07;;;;;;;2.93;1.27;;;;;;;5.98;72.41;100176.69;1686677;83;20915;-50
2021/09/05 03:59:34;;;;;;;1.13;0.80;;;;;;;5.99;72.55;100181.12;1665255;84;20987;-51
2021/09/05 04:02:03;;;;;;;2.00;0.90;;;;;;;5.99;72.75;100188.69;1687048;83;20898;-51
2021/09/05 04:04:30;;;;;;;1.77;0.90;;;;;;;6.01;72.96;100187.31;1687297;83;20980;-51
2021/09/05 04:07:01;;;;;;;1.30;1.17;;;;;;;6.04;73.10;100188.56;1686464;82;21057;-50
2021/09/05 04:12:15;;;;;;;2.13;1.10;;;;;;;6.13;73.44;100196.37;1688521;83;21757;-51
2021/09/05 04:14:42;;;;;;;4.47;1.27;;;;;;;6.20;73.65;100189.99;1681551;83;21700;-51
2021/09/05 04:17:08;;;;;;;3.87;1.80;;;;;;;6.28;73.84;100185.80;1686598;83;21478;-50
2021/09/05 04:19:36;;;;;;;2.20;1.17;;;;;;;6.39;74.04;100199.77;1680480;83;22299;-50
2021/09/05 04:22:03;;;;;;;1.87;1.17;;;;;;;6.49;74.11;100193.73;1677565;83;21644;-50
2021/09/05 04:24:31;;;;;;;6.93;1.00;;;;;;;6.59;74.22;100200.17;1710418;82;20947;-50
2021/09/05 04:26:58;;;;;;;1.60;1.00;;;;;;;6.73;74.31;100203.36;1705827;82;21097;-51
2021/09/05 04:29:24;;;;;;;2.20;0.90;;;;;;;6.86;74.34;100195.92;1703500;82;21421;-51
2021/09/05 04:31:50;;;;;;;3.17;1.30;;;;;;;6.98;74.33;100203.60;1709209;82;21316;-50
2021/09/05 04:34:17;;;;;;;3.50;1.13;;;;;;;7.09;74.31;100201.98;1707736;82;21548;-50
2021/09/05 04:36:43;;;;;;;2.00;0.90;;;;;;;7.21;74.38;100198.99;1704522;82;21671;-50
2021/09/05 04:39:10;;;;;;;5.00;1.10;;;;;;;7.39;74.52;100196.27;1706481;82;21803;-51
2021/09/05 04:41:36;;;;;;;3.03;1.20;;;;;;;7.63;74.56;100196.89;1705394;82;21547;-51
2021/09/05 04:44:03;;;;;;;3.60;1.03;;;;;;;7.93;74.41;100197.31;1704597;82;21077;-50
2021/09/05 04:46:29;;;;;;;2.20;1.00;;;;;;;8.28;74.07;100197.55;1672466;83;21066;-50
2021/09/05 04:48:56;;;;;;;4.50;1.77;;;;;;;8.59;73.44;100196.61;1707955;82;22678;-51
2021/09/05 04:51:22;;;;;;;4.07;1.17;;;;;;;8.82;72.80;100190.46;1669341;83;21109;-50
2021/09/05 04:53:49;;;;;;;2.30;1.07;;;;;;;8.97;72.26;100196.17;1700958;82;21109;-50
2021/09/05 04:56:15;;;;;;;2.27;1.20;;;;;;;9.07;71.78;100200.30;1704576;82;21117;-51
2021/09/05 04:58:42;;;;;;;6.77;1.50;;;;;;;9.13;71.44;100198.32;1706691;82;21466;-51
2021/09/05 05:01:08;;;;;;;3.53;1.30;;;;;;;9.17;71.11;100199.98;1672874;83;20984;-51
2021/09/05 05:03:35;;;;;;;3.50;0.90;;;;;;;9.18;70.99;100203.96;1703573;82;22294;-51
2021/09/05 05:06:06;;;;;;;3.07;1.00;;;;;;;9.20;70.89;100202.08;1703533;82;21062;-51
2021/09/05 05:08:34;;;;;;;3.47;0.93;;;;;;;9.25;70.87;100209.98;1708405;82;21074;-51
2021/09/05 05:11:01;;;;;;;2.77;0.60;;;;;;;9.31;70.94;100206.61;1667703;83;21150;-51
2021/09/05 05:13:29;;;;;;;2.40;0.73;;;;;;;9.40;70.88;100206.74;1670575;83;21093;-51
2021/09/05 05:15:55;;;;;;;1.67;0.70;;;;;;;9.47;70.75;100198.39;1703308;82;21049;-51
2021/09/05 05:18:23;;;;;;;0.90;0.60;;;;;;;9.59;70.66;100204.27;1702402;82;21392;-51
2021/09/05 05:20:50;;;;;;;1.22;0.80;;;;;;;9.68;70.51;100199.43;1707928;82;20875;-51
2021/09/05 05:23:17;;;;;;;1.10;0.90;;;;;;;9.80;70.36;100208.82;1708898;82;20978;-51
2021/09/05 05:25:44;;;;;;;1.12;0.70;;;;;;;9.92;70.08;100200.77;1708867;82;22509;-51
2021/09/05 05:28:10;;;;;;;5.50;0.90;;;;;;;10.02;69.58;100206.20;1672278;83;21077;-52
2021/09/05 05:30:36;;;;;;;1.12;0.70;;;;;;;10.11;69.29;100201.35;1670783;83;21081;-51
2021/09/05 05:36:04;;;;;;;2.63;0.73;;;;;;;10.32;68.89;100194.25;1793504;77;22679;-53
2021/09/05 05:38:31;;;;;;;1.80;0.70;;;;;;;10.37;68.69;100205.73;1768658;78;21524;-52
2021/09/05 05:40:58;;;;;;;2.20;0.60;;;;;;;10.45;68.43;100195.53;1766846;78;20990;-53
2021/09/05 05:43:24;;;;;;;0.82;0.50;;;;;;;10.57;68.36;100202.20;1730015;80;21678;-53
2021/09/05 05:45:51;;;;;;;1.95;0.80;;;;;;;10.69;68.05;100207.10;1718885;81;21619;-52
2021/09/05 05:48:17;;;;;;;1.45;0.50;;;;;;;10.82;67.90;100196.67;1712607;81;21065;-53
2021/09/05 05:50:47;;;;;;;1.40;0.53;;;;;;;10.94;67.44;100206.94;1718032;81;21148;-52
2021/09/05 05:53:14;;;;;;;0.53;0.45;;;;;;;11.02;67.16;100204.80;1720321;81;21171;-52
2021/09/05 05:55:41;;;;;;;0.80;0.40;;;;;;;11.12;67.12;100208.86;1721102;81;20939;-53
2021/09/05 05:58:07;;;;;;;1.42;0.50;;;;;;;11.24;66.73;100214.16;1720999;81;20949;-52
2021/09/05 06:00:35;;;;;;;1.80;0.45;;;;;;;11.33;66.23;100204.33;1721515;81;21197;-51
2021/09/05 06:03:01;;;;;;;2.58;0.50;;;;;;;11.44;65.95;100215.52;1714245;81;21076;-52
2021/09/05 06:05:28;;;;;;;2.33;0.50;;;;;;;11.52;65.67;100211.13;1719903;81;22185;-52
2021/09/05 06:07:54;;;;;;;1.32;0.60;;;;;;;11.56;65.46;100219.03;1718109;81;21629;-52
2021/09/05 06:10:22;;;;;;;0.80;0.40;;;;;;;11.60;65.03;100218.41;1716318;81;21304;-52
2021/09/05 06:12:48;;;;;;;2.65;0.50;;;;;;;11.63;65.05;100223.67;1718118;81;21100;-52
2021/09/05 06:15:14;;;;;;;1.00;0.50;;;;;;;11.64;65.21;100226.30;1716618;81;21123;-52
2021/09/05 06:17:42;;;;;;;1.22;0.50;;;;;;;11.68;65.30;100226.55;1717328;81;21061;-52
2021/09/05 06:20:10;;;;;;;0.60;0.40;;;;;;;11.73;65.40;100231.28;1720207;81;21136;-53
2021/09/05 06:22:37;;;;;;;6.47;0.50;;;;;;;11.81;65.51;100230.09;1726076;81;20909;-52
2021/09/05 06:25:04;;;;;;;0.70;0.40;;;;;;;11.89;65.13;100236.00;1721581;81;20971;-53
2021/09/05 06:27:30;;;;;;;0.75;0.45;;;;;;;11.96;64.97;100237.00;1720766;81;20946;-53
2021/09/05 06:29:56;;;;;;;0.60;0.40;;;;;;;12.06;64.79;100236.98;1727626;81;21101;-54
2021/09/05 06:32:22;;;;;;;0.72;0.40;;;;;;;12.17;64.54;100237.80;1701787;82;20934;-53
2021/09/05 06:34:49;;;;;;;3.33;0.40;;;;;;;12.26;64.04;100237.84;1682674;82;20970;-53
2021/09/05 06:37:17;;;;;;;1.70;0.40;;;;;;;12.32;63.92;100236.22;1666274;83;20951;-53
2021/09/05 06:39:43;;;;;;;1.70;0.40;;;;;;;12.41;63.89;100235.78;1694371;82;20926;-53
2021/09/05 06:42:10;;;;;;;2.12;0.50;;;;;;;12.49;63.15;100239.87;1681692;83;21378;-53
2021/09/05 06:44:37;;;;;;;0.60;0.40;;;;;;;12.57;62.92;100234.56;1696628;82;21369;-52
2021/09/05 06:47:04;;;;;;;2.15;0.40;;;;;;;12.64;62.38;100236.02;1694734;82;20934;-50
2021/09/05 06:49:31;;;;;;;0.88;0.30;;;;;;;12.68;62.02;100241.17;1698716;82;20966;-52
2021/09/05 06:51:57;;;;;;;0.57;0.40;;;;;;;12.73;61.51;100240.96;1686424;83;21515;-51
2021/09/05 06:54:23;;;;;;;0.82;0.40;;;;;;;12.78;61.11;100242.47;1691329;82;21891;-52
2021/09/05 06:56:50;;;;;;;0.50;0.40;;;;;;;12.84;60.89;100242.67;1680500;83;21432;-52
2021/09/05 06:59:16;;;;;;;0.98;0.30;;;;;;;12.89;60.63;100247.35;1686716;83;20967;-53
2021/09/05 07:01:43;;;;;;;2.00;0.30;;;;;;;12.93;60.29;100246.73;1669215;83;20918;-52
2021/09/05 07:04:09;;;;;;;0.60;0.35;;;;;;;12.98;59.65;100254.13;1679902;83;20978;-52
2021/09/05 07:06:35;;;;;;;0.88;0.30;;;;;;;13.01;58.49;100253.98;1666209;84;22186;-51
2021/09/05 07:09:03;;;;;;;0.60;0.30;;;;;;;13.00;58.19;100254.93;1667381;83;22313;-53
2021/09/05 07:11:30;;;;;;;0.30;0.20;;;;;;;13.01;58.72;100259.39;1668710;83;21076;-52
2021/09/05 07:13:56;;;;;;;0.70;0.30;;;;;;;13.05;57.97;100262.31;1683213;83;21092;-53
2021/09/05 07:16:23;;;;;;;0.40;0.30;;;;;;;13.08;57.63;100259.00;1670688;83;21104;-53
2021/09/05 07:18:49;;;;;;;2.87;0.40;;;;;;;13.12;57.57;100257.87;1683456;82;21140;-52
2021/09/05 07:21:16;;;;;;;0.40;0.30;;;;;;;13.15;56.96;100261.81;1677188;83;21176;-53
2021/09/05 07:23:42;;;;;;;1.70;0.30;;;;;;;13.22;56.97;100261.02;1662627;83;21390;-52
2021/09/05 07:26:08;;;;;;;0.88;0.40;;;;;;;13.27;57.61;100265.70;1676973;83;21089;-53
2021/09/05 07:28:36;;;;;;;1.37;0.30;;;;;;;13.37;57.78;100262.05;1683971;82;21124;-53
2021/09/05 07:31:04;;;;;;;1.07;0.30;;;;;;;13.45;57.64;100266.11;1682072;83;20974;-53
2021/09/05 07:33:30;;;;;;;0.85;0.30;;;;;;;13.52;56.01;100269.40;1657164;84;21096;-52
2021/09/05 07:35:57;;;;;;;0.50;0.30;;;;;;;13.57;55.09;100272.25;1673919;83;21105;-52
2021/09/05 07:38:23;;;;;;;0.50;0.30;;;;;;;13.63;54.63;100269.22;1670449;83;21094;-53
2021/09/05 07:40:49;;;;;;;0.78;0.20;;;;;;;13.71;54.31;100269.28;1675389;83;21121;-52
2021/09/05 07:43:16;;;;;;;0.40;0.20;;;;;;;13.77;53.81;100266.27;1669463;83;21106;-53
2021/09/05 07:45:44;;;;;;;0.37;0.20;;;;;;;13.82;53.34;100267.77;1666603;83;21102;-52
2021/09/05 07:48:10;;;;;;;0.37;0.20;;;;;;;13.88;52.29;100264.72;1657447;84;21550;-52
2021/09/05 07:50:36;;;;;;;0.53;0.20;;;;;;;13.94;52.63;100273.89;1676480;83;21698;-53
2021/09/05 07:53:03;;;;;;;0.40;0.20;;;;;;;14.01;51.33;100267.66;1671087;83;21137;-53
2021/09/05 07:55:29;;;;;;;0.30;0.10;;;;;;;14.03;49.63;100263.89;1672011;83;21635;-52
2021/09/05 07:57:55;;;;;;;0.68;0.20;;;;;;;14.08;49.78;100272.26;1667840;83;21624;-54
2021/09/05 08:00:22;;;;;;;0.80;0.20;;;;;;;14.13;50.36;100269.68;1674707;83;21073;-53
2021/09/05 08:02:49;;;;;;;0.50;0.20;;;;;;;14.21;50.62;100270.14;1669658;83;21081;-53
2021/09/05 08:05:15;;;;;;;0.30;0.20;;;;;;;14.28;50.15;100272.05;1673841;83;21547;-53
2021/09/05 08:07:41;;;;;;;0.40;0.20;;;;;;;14.31;47.81;100272.73;1709277;81;21048;-53
2021/09/05 08:10:09;;;;;;;0.10;0.10;;;;;;;14.31;47.00;100274.09;1713959;81;21038;-53
2021/09/05 08:12:36;;;;;;;0.30;0.20;;;;;;;14.32;47.23;100277.20;1720284;81;20998;-53
2021/09/05 08:15:03;;;;;;;0.20;0.10;;;;;;;14.38;46.41;100275.53;1717845;81;21532;-53
2021/09/05 08:17:29;;;;;;;0.33;0.20;;;;;;;14.38;46.41;100275.53;1711658;81;21100;-53
2021/09/05 08:19:56;;;;;;;0.20;0.10;;;;;;;14.45;46.74;100276.09;1712651;81;21777;-53
2021/09/05 08:22:22;;;;;;;0.17;0.10;;;;;;;14.63;46.39;100270.12;1710539;81;21457;-53
2021/09/05 08:24:48;;;;;;;0.30;0.20;;;;;;;14.63;46.39;100270.12;1708100;81;21090;-54
2021/09/05 08:27:15;;;;;;;0.30;0.10;;;;;;;14.72;45.99;100271.80;1711957;81;21058;-53
2021/09/05 08:29:41;;;;;;;0.40;0.10;;;;;;;14.82;43.48;100273.50;1714383;81;21607;-53
2021/09/05 08:32:08;;;;;;;0.20;0.10;;;;;;;14.82;43.48;100273.50;1714321;81;21117;-53
2021/09/05 08:34:35;;;;;;;0.20;0.20;;;;;;;14.82;43.39;100264.50;1712876;81;21125;-54
2021/09/05 08:37:03;;;;;;;1.75;0.20;;;;;;;14.87;42.83;100270.55;1713011;81;21066;-53
2021/09/05 08:39:29;;;;;;;0.10;0.10;;;;;;;14.90;42.60;100274.41;1717989;81;21054;-53
2021/09/05 08:41:56;;;;;;;0.10;0.10;;;;;;;14.94;43.01;100279.59;1714407;81;21101;-54
2021/09/05 08:44:24;;;;;;;0.30;0.10;;;;;;;14.97;42.26;100279.91;1712531;81;21108;-54
2021/09/05 08:46:53;;;;;;;0.30;0.10;;;;;;;14.98;42.64;100270.77;1660541;84;20982;-53
2021/09/05 08:49:24;;;;;;;0.30;0.10;;;;;;;15.03;42.08;100279.53;1679509;83;21065;-53
2021/09/05 08:51:54;;;;;;;0.85;0.20;;;;;;;15.08;42.59;100281.00;1672730;83;22647;-54
2021/09/05 08:54:20;;;;;;;0.23;0.20;;;;;;;15.17;43.05;100283.66;1677308;83;20930;-54
2021/09/05 08:56:52;;;;;;;0.20;0.20;;;;;;;15.27;42.53;100284.00;1672319;83;21764;-54
2021/09/05 08:59:19;;;;;;;0.25;0.10;;;;;;;15.35;42.35;100288.48;1678372;83;21629;-53
2021/09/05 09:01:59;;;;;;;0.15;0.10;;;;;;;15.43;41.33;100286.19;1675104;83;21132;-53
2021/09/05 09:04:28;;;;;;;0.20;0.20;;;;;;;15.50;41.55;100283.02;1676823;83;21342;-54
2021/09/05 09:06:56;;;;;;;0.30;0.23;;;;;;;15.57;40.22;100275.91;1645362;83;20982;-53
2021/09/05 09:09:24;;;;;;;0.33;0.20;;;;;;;15.61;40.58;100281.05;1673787;83;21108;-54
2021/09/05 09:11:56;;;;;;;2.40;0.20;;;;;;;15.66;40.66;100291.61;1670566;83;21112;-53
2021/09/05 09:14:39;;;;;;;0.30;0.20;;;;;;;15.72;39.75;100288.06;1675683;83;20939;-53
2021/09/05 09:17:06;;;;;;;0.20;0.10;;;;;;;15.76;39.41;100277.87;1678942;83;21010;-54
2021/09/05 09:19:32;;;;;;;0.98;0.20;;;;;;;15.78;39.21;100268.69;1676028;83;21347;-53
2021/09/05 09:21:58;;;;;;;0.42;0.20;;;;;;;15.82;39.93;100272.09;1673973;83;21579;-54
2021/09/05 09:24:25;;;;;;;0.20;0.10;;;;;;;15.85;39.60;100278.67;1627111;83;21152;-54
2021/09/05 09:26:59;;;;;;;0.62;0.15;;;;;;;15.82;39.27;100276.17;1676278;83;21122;-54
2021/09/05 09:29:26;;;;;;;1.75;0.20;;;;;;;15.78;39.46;100279.54;1679735;84;21433;-54
2021/09/05 09:32:09;;;;;;;0.93;0.20;;;;;;;15.74;39.93;100274.37;1674328;83;21520;-54
2021/09/05 09:34:46;;;;;;;0.40;0.20;;;;;;;15.68;40.23;100279.70;1674953;83;21374;-53
2021/09/05 09:37:22;;;;;;;0.30;0.20;;;;;;;15.64;40.72;100286.30;1676409;83;20974;-54
2021/09/05 09:39:58;;;;;;;0.37;0.23;;;;;;;15.64;41.11;100275.93;1673484;83;20991;-54
2021/09/05 09:42:40;;;;;;;0.75;0.20;;;;;;;15.64;41.78;100274.57;1673138;83;21081;-54
2021/09/05 09:45:12;;;;;;;2.35;0.20;;;;;;;15.67;41.61;100271.17;1677459;83;20939;-54
2021/09/05 09:47:50;;;;;;;0.20;0.20;;;;;;;15.75;41.78;100271.58;1678673;83;21827;-54
2021/09/05 09:50:20;;;;;;;0.10;0.10;;;;;;;15.85;41.42;100272.76;1675866;83;21003;-54
2021/09/05 09:52:48;;;;;;;0.40;0.10;;;;;;;15.96;40.12;100272.11;1675163;83;20954;-54
2021/09/05 09:55:15;;;;;;;0.40;0.25;;;;;;;16.05;40.01;100266.10;1675815;83;21036;-54
2021/09/05 09:57:41;;;;;;;0.60;0.15;;;;;;;16.15;40.09;100266.41;1678216;83;20974;-54
2021/09/05 10:00:08;;;;;;;0.28;0.13;;;;;;;16.22;40.17;100278.63;1674857;83;21076;-54
2021/09/05 10:02:42;;;;;;;2.02;0.30;;;;;;;16.22;40.04;100274.55;1679736;83;20986;-55
2021/09/05 10:05:11;;;;;;;0.40;0.30;;;;;;;16.15;40.38;100280.86;1680354;83;20954;-55
2021/09/05 10:07:38;;;;;;;0.30;0.10;;;;;;;16.07;40.21;100299.95;1676718;83;22219;-55
2021/09/05 10:10:06;;;;;;;0.80;0.20;;;;;;;15.94;40.75;100318.83;1671872;83;21447;-53
2021/09/05 10:12:32;;;;;;;1.57;0.10;;;;;;;15.71;42.09;100332.94;1677238;83;22699;-51
2021/09/05 10:14:59;;;;;;;0.45;0.10;;;;;;;15.40;43.80;100343.32;1674452;83;20935;-52
2021/09/05 10:17:26;;;;;;;0.85;0.20;;;;;;;15.05;46.13;100369.80;1671873;83;21435;-54
2021/09/05 10:19:54;;;;;;;1.67;0.17;;;;;;;14.65;47.87;100379.26;1676141;83;21985;-54
2021/09/05 10:22:24;;;;;;;0.37;0.17;;;;;;;14.28;49.64;100383.95;1669871;83;21165;-52
2021/09/05 10:24:52;;;;;;;0.72;0.20;;;;;;;14.02;50.87;100379.03;1674513;83;22164;-52
2021/09/05 10:27:39;;;;;;;0.20;0.13;;;;;;;13.87;52.82;100381.16;1672168;83;21487;-53
2021/09/05 10:30:10;;;;;;;0.20;0.20;;;;;;;13.75;53.85;100355.63;1645461;83;21141;-54
2021/09/05 10:32:53;;;;;;;0.30;0.10;;;;;;;13.71;56.59;100358.56;1717442;80;21069;-54
2021/09/05 10:35:28;;;;;;;1.00;0.10;;;;;;;13.67;58.96;100344.33;1718722;80;21648;-54
2021/09/05 10:38:23;;;;;;;0.10;0.10;;;;;;;13.68;60.16;100358.73;1719009;80;21330;-54
2021/09/05 10:40:57;;;;;;;0.20;0.10;;;;;;;13.79;60.74;100353.62;1726777;80;21098;-54
2021/09/05 10:43:45;;;;;;;0.20;0.10;;;;;;;13.79;60.74;100353.62;1726813;80;21070;-54
2021/09/05 10:46:19;;;;;;;0.10;0.10;;;;;;;13.90;60.32;100348.54;1719206;80;20982;-52
2021/09/05 10:48:55;;;;;;;0.20;0.10;;;;;;;14.06;59.51;100346.77;1718864;80;21063;-53
2021/09/05 10:51:30;;;;;;;0.33;0.20;;;;;;;14.19;57.03;100341.12;1717513;80;23291;-53
2021/09/05 10:54:08;;;;;;;0.53;0.10;;;;;;;14.35;56.23;100336.63;1726316;80;21019;-53
2021/09/05 10:56:44;;;;;;;0.23;0.20;;;;;;;14.49;55.78;100338.59;1719149;80;21120;-53
2021/09/05 10:59:16;;;;;;;0.90;0.50;;;;;;;14.57;53.33;100331.39;1719573;80;21018;-53
2021/09/05 11:01:52;;;;;;;0.63;0.40;;;;;;;14.71;52.16;100330.17;1722874;80;21503;-53
2021/09/05 11:04:25;;;;;;;0.20;0.20;;;;;;;14.93;50.65;100317.14;1715832;80;21139;-53
2021/09/05 11:07:06;;;;;;;0.37;0.20;;;;;;;14.93;50.65;100317.14;1719902;80;21093;-53
2021/09/05 11:09:40;;;;;;;0.37;0.20;;;;;;;15.00;50.02;100325.79;1731995;80;21058;-54
2021/09/05 11:12:23;;;;;;;0.35;0.17;;;;;;;15.05;49.17;100326.42;1717056;80;21058;-53
2021/09/05 11:14:54;;;;;;;0.25;0.10;;;;;;;15.08;48.54;100322.16;1721202;80;21110;-54
2021/09/05 11:17:27;;;;;;;0.20;0.10;;;;;;;15.12;47.88;100317.84;1720894;80;21097;-53
2021/09/05 11:20:12;;;;;;;1.27;0.20;;;;;;;15.19;47.64;100313.41;1723326;80;20947;-53
2021/09/05 11:22:44;;;;;;;1.67;0.20;;;;;;;15.25;46.95;100315.75;1723238;80;21101;-54
2021/09/05 11:25:19;;;;;;;0.20;0.10;;;;;;;15.29;46.36;100311.43;1715919;80;21754;-53
2021/09/05 11:28:07;;;;;;;0.25;0.20;;;;;;;15.35;46.38;100306.11;1725608;80;20912;-53
2021/09/05 11:30:37;;;;;;;0.30;0.20;;;;;;;15.42;46.40;100302.06;1724113;80;21112;-54
2021/09/05 11:33:08;;;;;;;0.80;0.15;;;;;;;15.50;47.02;100301.13;1720625;80;21082;-53
2021/09/05 11:35:46;;;;;;;0.30;0.20;;;;;;;15.56;47.34;100300.81;1722178;80;20991;-54
2021/09/05 11:38:15;;;;;;;0.20;0.20;;;;;;;15.59;47.65;100304.68;1721027;80;20942;-53
2021/09/05 11:40:52;;;;;;;0.47;0.20;;;;;;;15.61;47.54;100309.55;1690631;80;21079;-54
2021/09/05 11:43:31;;;;;;;1.60;0.10;;;;;;;15.59;48.10;100318.25;1662013;84;22874;-53
2021/09/05 11:45:58;;;;;;;0.30;0.20;;;;;;;15.48;49.13;100334.28;1673505;83;21133;-53
2021/09/05 11:48:26;;;;;;;0.20;0.20;;;;;;;15.28;50.16;100331.38;1673163;83;22098;-54